createdAt,value
2022-11-18T00:01:11.812Z,0.80
2022-11-18T00:03:39.600Z,0.60
2022-11-18T00:06:07.654Z,0.50
2022-11-18T00:08:34.853Z,0.47
2022-11-18T00:11:33.795Z,0.60
2022-11-18T00:14:18.896Z,0.50
2022-11-18T00:16:51.770Z,0.57
2022-11-18T00:19:24.258Z,0.38
2022-11-18T00:21:50.983Z,0.47
2022-11-18T00:24:17.968Z,0.65
2022-11-18T00:26:44.624Z,0.50
2022-11-18T00:29:11.861Z,0.50
2022-11-18T00:31:38.653Z,0.40
2022-11-18T00:34:06.119Z,0.85
2022-11-18T00:36:32.937Z,0.40
2022-11-18T00:38:59.648Z,0.50
2022-11-18T00:41:46.368Z,0.47
2022-11-18T00:44:13.021Z,0.50
2022-11-18T00:46:39.716Z,0.50
2022-11-18T00:49:06.462Z,0.65
2022-11-18T00:51:33.293Z,0.43
2022-11-18T00:54:00.024Z,0.60
2022-11-18T00:56:26.721Z,0.50
2022-11-18T00:58:53.500Z,0.50
2022-11-18T01:01:20.263Z,0.35
2022-11-18T01:03:47.345Z,0.40
2022-11-18T01:06:14.125Z,0.52
2022-11-18T01:08:40.894Z,0.70
2022-11-18T01:11:26.093Z,0.77
2022-11-18T01:13:53.143Z,0.60
2022-11-18T01:16:21.617Z,0.70
2022-11-18T01:18:48.685Z,0.68
2022-11-18T01:21:15.549Z,0.60
2022-11-18T01:23:42.361Z,0.60
2022-11-18T01:26:11.582Z,0.60
2022-11-18T01:28:38.603Z,0.90
2022-11-18T01:31:14.436Z,0.70
2022-11-18T01:33:41.429Z,0.77
2022-11-18T01:36:37.496Z,1.00
2022-11-18T01:39:04.743Z,0.68
2022-11-18T01:41:32.148Z,0.80
2022-11-18T01:44:26.377Z,1.10
2022-11-18T01:46:53.031Z,0.98
2022-11-18T01:49:20.135Z,1.02
2022-11-18T01:51:55.127Z,0.80
2022-11-18T01:54:29.759Z,1.17
2022-11-18T01:57:00.256Z,1.20
2022-11-18T01:59:32.230Z,0.98
2022-11-18T02:02:01.386Z,0.85
2022-11-18T02:04:28.285Z,0.98
2022-11-18T02:06:56.455Z,0.82
2022-11-18T02:09:23.375Z,0.75
2022-11-18T02:11:56.417Z,1.08
2022-11-18T02:14:45.766Z,1.40
2022-11-18T02:17:44.886Z,1.20
2022-11-18T02:20:31.791Z,1.45
2022-11-18T02:23:27.484Z,1.10
2022-11-18T02:26:04.754Z,1.08
2022-11-18T02:29:10.449Z,1.20
2022-11-18T02:32:01.725Z,1.20
2022-11-18T02:34:49.559Z,1.23
2022-11-18T02:37:25.091Z,1.60
2022-11-18T02:39:59.141Z,1.25
2022-11-18T02:42:29.614Z,1.30
2022-11-18T02:45:01.710Z,0.95
2022-11-18T02:47:31.588Z,1.40
2022-11-18T02:50:21.202Z,1.10
2022-11-18T02:52:52.705Z,1.17
2022-11-18T02:55:20.291Z,1.10
2022-11-18T02:57:47.948Z,1.20
2022-11-18T03:00:15.353Z,1.20
2022-11-18T03:02:45.012Z,1.00
2022-11-18T03:05:42.966Z,1.10
2022-11-18T03:08:15.127Z,1.17
2022-11-18T03:10:52.588Z,1.00
2022-11-18T03:13:30.979Z,1.15
2022-11-18T03:16:05.426Z,1.08
2022-11-18T03:18:54.760Z,1.00
2022-11-18T03:21:31.917Z,1.00
2022-11-18T03:24:07.985Z,1.00
2022-11-18T03:26:43.782Z,1.13
2022-11-18T03:29:29.825Z,0.90
2022-11-18T03:32:03.336Z,0.98
2022-11-18T03:34:54.199Z,0.93
2022-11-18T03:37:23.016Z,0.80
2022-11-18T03:39:54.500Z,0.70
2022-11-18T03:42:34.628Z,0.73
2022-11-18T03:45:09.958Z,0.67
2022-11-18T03:47:41.372Z,0.50
2022-11-18T03:50:21.916Z,0.40
2022-11-18T03:52:50.133Z,0.50
2022-11-18T03:55:28.786Z,0.50
2022-11-18T03:58:24.265Z,0.40
2022-11-18T04:00:56.784Z,0.47
2022-11-18T04:03:26.099Z,0.63
2022-11-18T04:06:01.310Z,0.40
2022-11-18T04:08:36.117Z,0.32
2022-11-18T04:11:36.663Z,0.60
2022-11-18T04:14:06.301Z,0.50
2022-11-18T04:16:42.763Z,0.30
2022-11-18T04:19:09.849Z,0.30
2022-11-18T04:21:36.720Z,0.30
2022-11-18T04:24:03.570Z,0.30
2022-11-18T04:26:31.528Z,0.30
2022-11-18T04:28:58.297Z,0.20
2022-11-18T04:31:25.033Z,0.20
2022-11-18T04:33:51.672Z,0.40
2022-11-18T04:36:19.845Z,0.20
2022-11-18T04:38:46.685Z,0.20
2022-11-18T04:41:13.549Z,0.60
2022-11-18T04:43:40.890Z,0.30
2022-11-18T04:46:07.837Z,0.60
2022-11-18T04:48:34.489Z,0.40
2022-11-18T04:51:05.232Z,0.63
2022-11-18T04:53:32.403Z,0.45
2022-11-18T04:56:06.170Z,0.50
2022-11-18T04:58:32.991Z,0.40
2022-11-18T05:00:59.732Z,0.50
2022-11-18T05:03:26.521Z,0.50
2022-11-18T05:05:53.205Z,0.60
2022-11-18T05:08:20.406Z,0.50
2022-11-18T05:10:47.103Z,0.60
2022-11-18T05:13:13.763Z,0.32
2022-11-18T05:15:40.394Z,0.40
2022-11-18T05:18:09.981Z,0.60
2022-11-18T05:20:41.580Z,0.55
2022-11-18T05:23:08.545Z,0.60
2022-11-18T05:25:36.096Z,0.68
2022-11-18T05:28:03.029Z,0.50
2022-11-18T05:30:29.703Z,0.43
2022-11-18T05:32:56.344Z,0.65
2022-11-18T05:35:23.048Z,0.70
2022-11-18T05:37:49.711Z,0.52
2022-11-18T05:40:16.684Z,0.43
2022-11-18T05:43:02.128Z,0.60
2022-11-18T05:45:28.780Z,0.57
2022-11-18T05:48:01.205Z,0.30
2022-11-18T05:50:27.975Z,0.50
2022-11-18T05:52:54.620Z,0.50
2022-11-18T05:55:24.056Z,0.50
2022-11-18T05:57:51.356Z,0.43
2022-11-18T06:00:19.351Z,0.50
2022-11-18T06:02:49.740Z,0.70
2022-11-18T06:05:18.461Z,0.80
2022-11-18T06:07:45.885Z,0.50
2022-11-18T06:10:18.595Z,0.60
2022-11-18T06:12:50.190Z,0.52
2022-11-18T06:15:26.447Z,0.47
2022-11-18T06:17:58.684Z,0.70
2022-11-18T06:20:26.197Z,0.70
2022-11-18T06:22:56.201Z,0.60
2022-11-18T06:25:24.101Z,0.63
2022-11-18T06:27:54.224Z,0.80
2022-11-18T06:30:20.876Z,0.80
2022-11-18T06:32:47.539Z,0.88
2022-11-18T06:35:14.223Z,0.63
2022-11-18T06:37:41.018Z,0.70
2022-11-18T06:40:08.513Z,0.80
2022-11-18T06:42:53.946Z,0.73
2022-11-18T06:45:20.660Z,0.70
2022-11-18T06:47:47.401Z,0.60
2022-11-18T06:50:14.394Z,0.47
2022-11-18T06:52:41.153Z,0.60
2022-11-18T06:55:08.408Z,0.55
2022-11-18T06:57:35.429Z,0.70
2022-11-18T07:00:02.931Z,0.70
2022-11-18T07:02:29.975Z,0.88
2022-11-18T07:04:57.434Z,0.95
2022-11-18T07:07:24.223Z,0.52
2022-11-18T07:09:50.924Z,0.70
2022-11-18T07:12:17.695Z,0.70
2022-11-18T07:14:45.192Z,0.70
2022-11-18T07:17:12.213Z,0.70
2022-11-18T07:19:40.127Z,0.68
2022-11-18T07:22:08.085Z,0.70
2022-11-18T07:24:34.731Z,0.60
2022-11-18T07:27:01.391Z,1.00
2022-11-18T07:29:28.072Z,0.50
2022-11-18T07:31:54.704Z,0.60
2022-11-18T07:34:21.349Z,0.63
2022-11-18T07:36:48.046Z,0.77
2022-11-18T07:39:14.694Z,0.60
2022-11-18T07:41:41.481Z,0.60
2022-11-18T07:44:11.300Z,0.55
2022-11-18T07:46:38.411Z,0.60
2022-11-18T07:49:07.112Z,0.68
2022-11-18T07:51:36.526Z,0.60
2022-11-18T07:54:14.430Z,0.60
2022-11-18T07:56:41.084Z,0.60
2022-11-18T07:59:08.435Z,0.60
2022-11-18T08:01:35.546Z,0.50
2022-11-18T08:04:08.364Z,0.60
2022-11-18T08:06:35.622Z,0.80
2022-11-18T08:09:03.333Z,0.60
2022-11-18T08:11:30.048Z,0.80
2022-11-18T08:13:56.711Z,0.50
2022-11-18T08:16:25.537Z,1.08
2022-11-18T08:18:52.872Z,0.40
2022-11-18T08:21:21.913Z,0.80
2022-11-18T08:23:53.258Z,0.35
2022-11-18T08:26:21.230Z,0.70
2022-11-18T08:28:48.391Z,0.60
2022-11-18T08:31:18.146Z,0.60
2022-11-18T08:33:44.965Z,0.93
2022-11-18T08:36:17.277Z,0.55
2022-11-18T08:38:44.616Z,0.40
2022-11-18T08:41:14.324Z,0.60
2022-11-18T08:43:41.025Z,0.60
2022-11-18T08:46:07.779Z,0.40
2022-11-18T08:48:34.437Z,0.60
2022-11-18T08:51:01.660Z,0.50
2022-11-18T08:53:28.560Z,1.77
2022-11-18T08:55:59.459Z,0.75
2022-11-18T09:00:53.909Z,0.70
2022-11-18T09:03:20.899Z,0.65
2022-11-18T09:05:47.910Z,0.50
2022-11-18T09:08:15.626Z,0.40
2022-11-18T09:10:42.810Z,0.40
2022-11-18T09:13:39.924Z,0.90
2022-11-18T09:15:59.054Z,0.88
2022-11-18T09:18:26.428Z,0.50
2022-11-18T09:20:57.464Z,0.68
2022-11-18T09:23:24.286Z,0.60
2022-11-18T09:26:01.364Z,0.50
2022-11-18T09:28:28.643Z,0.68
2022-11-18T09:30:55.375Z,0.60
2022-11-18T09:33:22.777Z,0.60
2022-11-18T09:35:49.652Z,0.50
2022-11-18T09:38:16.764Z,0.80
2022-11-18T09:41:37.111Z,0.80
2022-11-18T09:44:22.342Z,0.57
2022-11-18T09:46:51.696Z,0.68
2022-11-18T09:49:37.813Z,0.90
2022-11-18T09:52:16.753Z,0.47
2022-11-18T09:54:43.535Z,0.90
2022-11-18T09:57:17.516Z,0.68
2022-11-18T09:59:44.495Z,0.68
2022-11-18T10:02:14.006Z,0.40
2022-11-18T10:04:40.771Z,0.40
2022-11-18T10:07:21.074Z,0.47
2022-11-18T10:09:50.365Z,0.40
2022-11-18T10:12:32.737Z,0.63
2022-11-18T10:15:05.300Z,0.60
2022-11-18T10:17:38.887Z,0.60
2022-11-18T10:20:22.735Z,0.70
2022-11-18T10:23:20.884Z,0.90
2022-11-18T10:25:47.729Z,0.80
2022-11-18T10:28:26.374Z,0.70
2022-11-18T10:30:53.130Z,0.70
2022-11-18T10:33:22.871Z,0.85
2022-11-18T10:35:50.461Z,0.90
2022-11-18T10:38:19.596Z,0.80
2022-11-18T10:40:58.035Z,1.05
2022-11-18T10:43:44.895Z,0.77
2022-11-18T10:46:26.090Z,0.75
2022-11-18T10:49:11.169Z,0.90
2022-11-18T10:51:46.609Z,0.70
2022-11-18T10:54:13.235Z,0.82
2022-11-18T10:56:56.414Z,0.73
2022-11-18T10:59:31.822Z,0.80
2022-11-18T11:02:22.956Z,0.80
2022-11-18T11:04:51.210Z,0.50
2022-11-18T11:07:28.961Z,0.68
2022-11-18T11:10:04.706Z,0.40
2022-11-18T11:12:47.160Z,0.60
2022-11-18T11:15:19.273Z,0.70
2022-11-18T11:18:12.179Z,0.60
2022-11-18T11:20:39.064Z,0.80
2022-11-18T11:23:15.669Z,0.70
2022-11-18T11:29:02.042Z,0.70
2022-11-18T11:31:40.727Z,0.70
2022-11-18T11:34:31.775Z,0.40
2022-11-18T11:39:49.255Z,0.40
2022-11-18T11:42:46.787Z,0.40
2022-11-18T11:45:19.274Z,0.50
2022-11-18T11:48:28.196Z,0.40
2022-11-18T11:51:05.020Z,0.40
2022-11-18T11:54:01.430Z,0.50
2022-11-18T11:56:40.067Z,0.65
2022-11-18T11:59:25.718Z,0.60
2022-11-18T12:02:31.660Z,0.60
2022-11-18T12:05:36.825Z,0.90
2022-11-18T12:08:09.752Z,0.75
2022-11-18T12:10:48.668Z,0.60
2022-11-18T12:13:38.242Z,0.90
2022-11-18T12:16:23.149Z,0.80
2022-11-18T12:19:12.940Z,0.60
2022-11-18T12:21:45.556Z,0.73
2022-11-18T12:24:18.365Z,1.00
2022-11-18T12:26:47.161Z,1.90
2022-11-18T12:29:20.075Z,1.02
2022-11-18T12:31:48.780Z,1.10
2022-11-18T12:34:25.650Z,0.80
2022-11-18T12:36:53.447Z,2.00
2022-11-18T12:39:26.013Z,1.23
2022-11-18T12:42:19.172Z,1.10
2022-11-18T12:44:48.356Z,1.50
2022-11-18T12:47:16.722Z,1.75
2022-11-18T12:49:46.408Z,1.90
2022-11-18T12:52:31.195Z,1.42
2022-11-18T12:55:02.238Z,1.60
2022-11-18T12:57:34.156Z,1.98
2022-11-18T13:00:22.378Z,1.58
2022-11-18T13:03:01.218Z,1.23
2022-11-18T13:05:33.368Z,1.25
2022-11-18T13:08:13.858Z,1.88
2022-11-18T13:11:14.235Z,1.50
2022-11-18T13:13:42.016Z,1.52
2022-11-18T13:16:42.350Z,2.80
2022-11-18T13:19:09.419Z,1.40
2022-11-18T13:21:55.016Z,4.38
2022-11-18T13:24:23.181Z,2.55
2022-11-18T13:26:58.621Z,1.88
2022-11-18T13:29:41.160Z,2.97
2022-11-18T13:32:27.376Z,4.22
2022-11-18T13:35:02.935Z,2.60
2022-11-18T13:37:31.747Z,2.42
2022-11-18T13:39:58.548Z,2.83
2022-11-18T13:42:27.527Z,1.98
2022-11-18T13:45:04.084Z,3.13
2022-11-18T13:47:53.707Z,2.47
2022-11-18T13:50:51.341Z,2.45
2022-11-18T13:53:21.133Z,1.75
2022-11-18T13:55:54.208Z,2.47
2022-11-18T13:59:02.575Z,2.30
2022-11-18T14:01:26.565Z,1.85
2022-11-18T14:04:04.199Z,2.60
2022-11-18T14:06:36.702Z,1.70
2022-11-18T14:09:21.957Z,1.80
2022-11-18T14:12:07.535Z,1.85
2022-11-18T14:14:37.181Z,1.20
2022-11-18T14:17:20.473Z,1.60
2022-11-18T14:19:53.127Z,1.30
2022-11-18T14:22:25.979Z,1.70
2022-11-18T14:24:55.379Z,1.35
2022-11-18T14:27:34.287Z,1.65
2022-11-18T14:30:01.042Z,1.42
2022-11-18T14:32:27.738Z,1.40
2022-11-18T14:35:01.297Z,1.80
2022-11-18T14:37:28.498Z,1.73
2022-11-18T14:39:57.225Z,14.40
2022-11-18T14:42:24.818Z,2.33
2022-11-18T14:44:51.826Z,2.75
2022-11-18T14:47:29.385Z,2.15
2022-11-18T14:49:56.042Z,4.88
2022-11-18T14:52:22.728Z,5.72
2022-11-18T14:54:49.395Z,24.73
2022-11-18T14:57:17.541Z,3.58
2022-11-18T14:59:44.625Z,1.50
2022-11-18T15:02:17.979Z,1.88
2022-11-18T15:04:44.979Z,7.40
2022-11-18T15:07:22.775Z,6.20
2022-11-18T15:09:49.714Z,3.75
2022-11-18T15:12:16.500Z,1.27
2022-11-18T15:14:43.254Z,3.22
2022-11-18T15:17:12.366Z,3.53
2022-11-18T15:19:40.720Z,2.00
2022-11-18T15:22:08.229Z,1.65
2022-11-18T15:24:35.019Z,1.02
2022-11-18T15:27:05.209Z,1.30
2022-11-18T15:29:32.397Z,2.15
2022-11-18T15:31:59.962Z,4.60
2022-11-18T15:34:26.721Z,3.05
2022-11-18T15:36:53.370Z,1.73
2022-11-18T15:39:20.078Z,3.30
2022-11-18T15:41:46.833Z,3.80
2022-11-18T15:44:13.495Z,2.03
2022-11-18T15:46:40.605Z,5.30
2022-11-18T15:49:10.734Z,5.50
2022-11-18T15:51:37.496Z,2.35
2022-11-18T15:54:04.226Z,1.40
2022-11-18T15:56:32.738Z,1.90
2022-11-18T15:59:05.368Z,1.85
2022-11-18T16:01:37.859Z,2.13
2022-11-18T16:04:06.537Z,1.70
2022-11-18T16:06:33.885Z,2.17
2022-11-18T16:09:00.789Z,2.20
2022-11-18T16:11:47.619Z,2.47
2022-11-18T16:14:17.591Z,1.92
2022-11-18T16:16:45.974Z,2.95
2022-11-18T16:19:15.623Z,2.78
2022-11-18T16:21:46.334Z,2.83
2022-11-18T16:24:16.891Z,3.08
2022-11-18T16:26:44.008Z,2.80
2022-11-18T16:29:12.353Z,3.63
2022-11-18T16:31:39.899Z,4.30
2022-11-18T16:34:22.155Z,3.42
2022-11-18T16:36:57.544Z,3.55
2022-11-18T16:39:26.492Z,4.10
2022-11-18T16:41:55.664Z,5.20
2022-11-18T16:44:23.603Z,2.60
2022-11-18T16:46:55.346Z,1.95
2022-11-18T16:49:24.347Z,2.53
2022-11-18T16:51:53.318Z,2.90
2022-11-18T16:54:25.653Z,2.47
2022-11-18T16:56:54.324Z,2.15
2022-11-18T16:59:26.735Z,2.63
2022-11-18T17:01:54.639Z,2.08
2022-11-18T17:04:23.298Z,2.70
2022-11-18T17:06:50.410Z,1.98
2022-11-18T17:09:20.106Z,2.53
2022-11-18T17:11:47.660Z,2.28
2022-11-18T17:14:14.416Z,2.63
2022-11-18T17:16:41.861Z,2.80
2022-11-18T17:19:13.815Z,3.13
2022-11-18T17:21:40.486Z,3.13
2022-11-18T17:24:07.880Z,3.25
2022-11-18T17:26:34.804Z,2.88
2022-11-18T17:29:01.444Z,3.30
2022-11-18T17:31:28.121Z,3.22
2022-11-18T17:33:56.109Z,3.78
2022-11-18T17:36:25.130Z,3.70
2022-11-18T17:38:53.639Z,3.22
2022-11-18T17:41:40.828Z,3.00
2022-11-18T17:44:08.986Z,3.78
2022-11-18T17:46:38.221Z,17.05
2022-11-18T17:49:26.600Z,4.07
2022-11-18T17:51:53.331Z,4.40
2022-11-18T17:54:21.225Z,4.32
2022-11-18T17:56:48.616Z,3.80
2022-11-18T17:59:17.208Z,4.25
2022-11-18T18:01:45.385Z,4.93
2022-11-18T18:04:14.562Z,14.00
2022-11-18T18:06:41.484Z,8.63
2022-11-18T18:09:08.161Z,10.80
2022-11-18T18:11:34.851Z,7.57
2022-11-18T18:14:13.749Z,7.68
2022-11-18T18:16:46.277Z,9.00
2022-11-18T18:19:15.733Z,15.55
2022-11-18T18:21:42.689Z,10.13
2022-11-18T18:24:10.347Z,9.10
2022-11-18T18:26:37.617Z,6.90
2022-11-18T18:29:04.662Z,6.20
2022-11-18T18:31:35.697Z,5.03
2022-11-18T18:34:03.397Z,4.75
2022-11-18T18:36:30.437Z,4.68
2022-11-18T18:38:58.455Z,5.45
2022-11-18T18:41:25.203Z,4.50
2022-11-18T18:43:51.860Z,4.38
2022-11-18T18:46:31.922Z,6.43
2022-11-18T18:49:09.281Z,4.13
2022-11-18T18:51:37.263Z,3.00
2022-11-18T18:54:04.783Z,8.30
2022-11-18T18:56:32.836Z,4.50
2022-11-18T18:58:59.964Z,8.00
2022-11-18T19:01:28.226Z,4.20
2022-11-18T19:04:03.042Z,4.13
2022-11-18T19:09:25.441Z,4.75
2022-11-18T19:12:11.540Z,4.97
2022-11-18T19:14:38.441Z,6.70
2022-11-18T19:17:10.795Z,5.78
2022-11-18T19:19:58.384Z,4.43
2022-11-18T19:22:25.691Z,4.03
2022-11-18T19:27:40.434Z,4.15
2022-11-18T19:30:08.909Z,3.80
2022-11-18T19:32:36.986Z,3.45
2022-11-18T19:35:05.322Z,3.85
2022-11-18T19:37:32.316Z,3.42
2022-11-18T19:40:05.660Z,4.30
2022-11-18T19:42:36.332Z,3.90
2022-11-18T19:45:04.378Z,3.50
2022-11-18T19:47:31.189Z,4.05
2022-11-18T19:49:58.128Z,3.50
2022-11-18T19:52:24.849Z,3.25
2022-11-18T19:54:51.562Z,3.28
2022-11-18T19:57:18.219Z,2.78
2022-11-18T19:59:46.297Z,2.63
2022-11-18T20:02:13.122Z,3.03
2022-11-18T20:04:39.866Z,2.60
2022-11-18T20:07:06.708Z,3.00
2022-11-18T20:09:33.510Z,2.83
2022-11-18T20:12:00.231Z,3.42
2022-11-18T20:14:26.964Z,2.53
2022-11-18T20:16:53.940Z,2.70
2022-11-18T20:19:21.029Z,2.30
2022-11-18T20:21:48.820Z,2.35
2022-11-18T20:24:18.131Z,2.35
2022-11-18T20:26:45.331Z,2.42
2022-11-18T20:29:12.729Z,2.05
2022-11-18T20:31:39.675Z,1.70
2022-11-18T20:34:06.391Z,3.17
2022-11-18T20:36:36.464Z,2.08
2022-11-18T20:39:05.823Z,2.13
2022-11-18T20:41:32.805Z,2.25
2022-11-18T20:44:00.479Z,1.65
2022-11-18T20:46:27.801Z,1.65
2022-11-18T20:48:55.417Z,1.38
2022-11-18T20:51:27.864Z,1.70
2022-11-18T20:53:55.865Z,1.70
2022-11-18T20:56:25.241Z,1.77
2022-11-18T20:58:52.507Z,1.25
2022-11-18T21:01:28.306Z,1.90
2022-11-18T21:03:57.878Z,2.00
2022-11-18T21:06:27.558Z,1.70
2022-11-18T21:08:59.011Z,1.70
2022-11-18T21:11:26.491Z,1.88
2022-11-18T21:14:11.978Z,1.67
2022-11-18T21:16:40.922Z,1.60
2022-11-18T21:19:07.868Z,2.20
2022-11-18T21:21:49.001Z,2.28
2022-11-18T21:24:33.202Z,1.90
2022-11-18T21:27:01.217Z,2.30
2022-11-18T21:29:30.180Z,1.75
2022-11-18T21:31:58.068Z,1.92
2022-11-18T21:34:24.798Z,1.88
2022-11-18T21:36:54.662Z,1.95
2022-11-18T21:39:25.168Z,1.88
2022-11-18T21:41:57.084Z,2.03
2022-11-18T21:44:25.611Z,1.42
2022-11-18T21:46:52.351Z,1.55
2022-11-18T21:49:19.521Z,1.52
2022-11-18T21:51:46.420Z,1.85
2022-11-18T21:54:15.666Z,1.98
2022-11-18T21:56:42.345Z,1.42
2022-11-18T21:59:09.056Z,1.83
2022-11-18T22:01:35.737Z,1.67
2022-11-18T22:04:04.814Z,1.67
2022-11-18T22:06:33.734Z,1.40
2022-11-18T22:09:01.221Z,1.38
2022-11-18T22:11:28.437Z,1.33
2022-11-18T22:13:55.277Z,1.30
2022-11-18T22:16:23.933Z,1.45
2022-11-18T22:18:58.180Z,1.48
2022-11-18T22:21:27.980Z,1.30
2022-11-18T22:23:59.598Z,1.67
2022-11-18T22:26:27.011Z,1.52
2022-11-18T22:28:56.037Z,1.17
2022-11-18T22:31:23.810Z,1.60
2022-11-18T22:33:51.621Z,1.75
2022-11-18T22:36:20.967Z,1.45
2022-11-18T22:38:48.528Z,1.95
2022-11-18T22:41:41.944Z,1.70
2022-11-18T22:44:09.613Z,1.98
2022-11-18T22:46:37.335Z,1.58
2022-11-18T22:49:05.233Z,1.80
2022-11-18T22:51:31.991Z,1.73
2022-11-18T22:56:45.459Z,1.40
2022-11-18T22:59:12.705Z,1.38
2022-11-18T23:01:40.057Z,1.75
2022-11-18T23:04:06.957Z,1.88
2022-11-18T23:06:33.640Z,1.38
2022-11-18T23:09:00.304Z,1.50
2022-11-18T23:11:45.693Z,1.88
2022-11-18T23:14:12.393Z,1.50
2022-11-18T23:16:41.612Z,1.50
2022-11-18T23:19:10.755Z,1.42
2022-11-18T23:21:37.413Z,1.60
2022-11-18T23:24:04.458Z,1.52
2022-11-18T23:26:32.009Z,1.35
2022-11-18T23:28:58.705Z,1.17
2022-11-18T23:31:27.263Z,1.15
2022-11-18T23:33:54.984Z,1.30
2022-11-18T23:36:23.808Z,1.25
2022-11-18T23:38:52.421Z,1.30
2022-11-18T23:41:19.694Z,1.33
2022-11-18T23:43:48.320Z,1.00
2022-11-18T23:46:16.667Z,1.20
2022-11-18T23:48:43.839Z,1.02
2022-11-18T23:51:12.866Z,1.10
2022-11-18T23:53:40.340Z,1.17
2022-11-18T23:56:10.474Z,1.10
2022-11-18T23:58:39.072Z,1.20
